createdAt,value
2023-03-29T00:03:06.582Z,930.00
2023-03-29T00:07:21.395Z,930.00
2023-03-29T00:11:06.422Z,946.00
2023-03-29T00:15:06.346Z,913.00
2023-03-29T00:19:06.305Z,920.00
2023-03-29T00:23:06.331Z,931.00
2023-03-29T00:27:06.268Z,918.00
2023-03-29T00:31:06.174Z,929.00
2023-03-29T00:35:06.199Z,919.00
2023-03-29T00:39:06.109Z,913.00
2023-03-29T00:43:06.129Z,915.00
2023-03-29T00:47:06.055Z,926.00
2023-03-29T00:51:08.149Z,923.00
2023-03-29T00:55:06.439Z,916.00
2023-03-29T00:59:05.931Z,928.00
2023-03-29T01:03:06.015Z,926.00
2023-03-29T01:07:05.927Z,935.00
2023-03-29T01:11:05.815Z,927.00
2023-03-29T01:15:05.761Z,928.00
2023-03-29T01:19:05.758Z,937.00
2023-03-29T01:23:05.850Z,922.00
2023-03-29T01:27:05.704Z,928.00
2023-03-29T01:31:05.642Z,925.00
2023-03-29T01:35:05.591Z,922.00
2023-03-29T01:39:05.745Z,928.00
2023-03-29T01:43:05.865Z,905.00
2023-03-29T01:47:05.960Z,911.00
2023-03-29T01:51:05.975Z,926.00
2023-03-29T01:55:06.009Z,916.00
2023-03-29T01:59:06.476Z,908.00
2023-03-29T02:03:06.247Z,909.00
2023-03-29T02:07:06.219Z,908.00
2023-03-29T02:11:06.262Z,901.00
2023-03-29T02:15:06.348Z,917.00
2023-03-29T02:19:06.429Z,889.00
2023-03-29T02:23:06.510Z,882.00
2023-03-29T02:27:06.524Z,867.00
2023-03-29T02:31:06.580Z,861.00
2023-03-29T02:35:06.667Z,840.00
2023-03-29T02:39:06.642Z,849.00
2023-03-29T02:43:06.744Z,845.00
2023-03-29T02:47:06.699Z,851.00
2023-03-29T02:51:06.734Z,847.00
2023-03-29T02:55:06.722Z,848.00
2023-03-29T02:59:06.713Z,843.00
2023-03-29T03:03:06.780Z,846.00
2023-03-29T03:07:06.635Z,846.00
2023-03-29T03:11:06.634Z,850.00
2023-03-29T03:15:06.662Z,857.00
2023-03-29T03:19:06.637Z,859.00
2023-03-29T03:23:06.611Z,864.00
2023-03-29T03:27:06.570Z,878.00
2023-03-29T03:31:06.662Z,882.00
2023-03-29T03:35:06.678Z,884.00
2023-03-29T03:39:06.706Z,890.00
2023-03-29T03:43:06.752Z,863.00
2023-03-29T03:47:06.816Z,872.00
2023-03-29T03:51:06.790Z,897.00
2023-03-29T03:55:06.835Z,888.00
2023-03-29T03:59:06.772Z,877.00
2023-03-29T04:03:06.862Z,868.00
2023-03-29T04:07:07.020Z,803.00
2023-03-29T04:11:06.751Z,729.00
2023-03-29T04:15:06.781Z,717.00
2023-03-29T04:19:06.822Z,662.00
2023-03-29T04:23:06.803Z,654.00
2023-03-29T04:27:06.910Z,649.00
2023-03-29T04:31:06.958Z,649.00
2023-03-29T04:35:06.989Z,648.00
2023-03-29T04:39:06.952Z,658.00
2023-03-29T04:43:06.996Z,671.00
2023-03-29T04:47:07.018Z,693.00
2023-03-29T04:51:07.061Z,697.00
2023-03-29T04:55:07.064Z,696.00
2023-03-29T04:59:07.058Z,715.00
2023-03-29T05:03:07.112Z,736.00
2023-03-29T05:07:07.041Z,802.00
2023-03-29T05:11:07.250Z,823.00
2023-03-29T05:15:07.264Z,783.00
2023-03-29T05:19:07.297Z,757.00
2023-03-29T05:23:07.259Z,692.00
2023-03-29T05:27:07.255Z,657.00
2023-03-29T05:31:07.290Z,629.00
2023-03-29T05:35:07.410Z,641.00
2023-03-29T05:39:07.362Z,648.00
2023-03-29T05:43:07.357Z,646.00
2023-03-29T05:47:07.378Z,677.00
2023-03-29T05:51:07.443Z,706.00
2023-03-29T05:55:07.489Z,773.00
2023-03-29T05:59:07.366Z,779.00
2023-03-29T06:03:18.032Z,845.00
2023-03-29T06:07:08.342Z,876.00
2023-03-29T06:11:07.446Z,946.00
2023-03-29T06:15:07.386Z,965.00
2023-03-29T06:19:07.307Z,1006.00
2023-03-29T06:23:07.266Z,1046.00
2023-03-29T06:27:07.256Z,1038.00
2023-03-29T06:31:07.349Z,1051.00
2023-03-29T06:35:07.692Z,1073.00
2023-03-29T06:39:07.241Z,1019.00
2023-03-29T06:43:07.077Z,709.00
2023-03-29T06:47:07.033Z,879.00
2023-03-29T06:51:07.027Z,842.00
2023-03-29T06:55:07.011Z,915.00
2023-03-29T06:59:06.974Z,984.00
2023-03-29T07:03:07.241Z,1015.00
2023-03-29T07:07:06.847Z,979.00
2023-03-29T07:11:06.936Z,892.00
2023-03-29T07:15:07.083Z,800.00
2023-03-29T07:19:07.334Z,866.00
2023-03-29T07:23:07.339Z,813.00
2023-03-29T07:27:07.261Z,839.00
2023-03-29T07:31:07.611Z,824.00
2023-03-29T07:35:07.103Z,597.00
2023-03-29T07:39:07.122Z,605.00
2023-03-29T07:43:07.064Z,651.00
2023-03-29T07:47:07.022Z,732.00
2023-03-29T07:51:07.024Z,686.00
2023-03-29T07:55:07.155Z,698.00
2023-03-29T07:59:06.962Z,660.00
2023-03-29T08:03:06.974Z,667.00
2023-03-29T08:07:06.851Z,641.00
2023-03-29T08:11:06.874Z,712.00
2023-03-29T08:15:07.058Z,694.00
2023-03-29T08:19:09.943Z,666.00
2023-03-29T08:23:07.064Z,701.00
2023-03-29T08:27:06.989Z,668.00
2023-03-29T08:31:07.003Z,566.00
2023-03-29T08:35:07.078Z,510.00
2023-03-29T08:39:06.897Z,500.00
2023-03-29T08:43:06.839Z,612.00
2023-03-29T08:47:06.866Z,649.00
2023-03-29T08:51:09.813Z,824.00
2023-03-29T08:55:06.737Z,880.00
2023-03-29T08:59:06.708Z,995.00
2023-03-29T09:03:06.730Z,1057.00
2023-03-29T09:07:06.640Z,1131.00
2023-03-29T09:11:06.616Z,1159.00
2023-03-29T09:15:06.553Z,1192.00
2023-03-29T09:19:06.509Z,1129.00
2023-03-29T09:23:06.474Z,1200.00
2023-03-29T09:27:06.440Z,1242.00
2023-03-29T09:31:06.725Z,1159.00
2023-03-29T09:35:06.397Z,1207.00
2023-03-29T09:39:06.372Z,1178.00
2023-03-29T09:43:06.329Z,1227.00
2023-03-29T09:47:06.328Z,1371.00
2023-03-29T09:51:06.203Z,1374.00
2023-03-29T09:55:06.701Z,1309.00
2023-03-29T09:59:06.102Z,1475.00
2023-03-29T10:03:07.464Z,1356.00
2023-03-29T10:07:06.062Z,1431.00
2023-03-29T10:11:06.044Z,1439.00
2023-03-29T10:15:07.370Z,1406.00
2023-03-29T10:19:07.006Z,1417.00
2023-03-29T10:23:06.108Z,1261.00
2023-03-29T10:27:06.240Z,1254.00
2023-03-29T10:31:06.562Z,1399.00
2023-03-29T10:35:06.609Z,1415.00
2023-03-29T10:39:06.746Z,1323.00
2023-03-29T10:43:06.928Z,1363.00
2023-03-29T10:47:07.078Z,1357.00
2023-03-29T10:51:07.180Z,1306.00
2023-03-29T10:55:07.348Z,1308.00
2023-03-29T10:59:07.281Z,1289.00
2023-03-29T11:03:07.310Z,1242.00
2023-03-29T11:07:07.190Z,1231.00
2023-03-29T11:11:07.143Z,1057.00
2023-03-29T11:15:07.128Z,957.00
2023-03-29T11:19:07.116Z,767.00
2023-03-29T11:23:07.062Z,598.00
2023-03-29T11:27:06.965Z,458.00
2023-03-29T11:31:07.051Z,471.00
2023-03-29T11:35:06.910Z,510.00
2023-03-29T11:39:06.890Z,463.00
2023-03-29T11:43:06.857Z,556.00
2023-03-29T11:47:06.793Z,530.00
2023-03-29T11:51:07.234Z,612.00
2023-03-29T11:55:06.946Z,611.00
2023-03-29T11:59:07.021Z,574.00
2023-03-29T12:03:07.332Z,1242.00
2023-03-29T12:07:07.391Z,1873.00
2023-03-29T12:11:08.243Z,2240.00
2023-03-29T12:15:07.550Z,2468.00
2023-03-29T12:19:07.698Z,2597.00
2023-03-29T12:23:07.906Z,2691.00
2023-03-29T12:27:08.068Z,2687.00
2023-03-29T12:31:08.165Z,2773.00
2023-03-29T12:35:08.341Z,2658.00
2023-03-29T12:39:08.321Z,2822.00
2023-03-29T12:43:08.393Z,2911.00
2023-03-29T12:47:08.522Z,2736.00
2023-03-29T12:51:08.445Z,2971.00
2023-03-29T12:55:08.473Z,2848.00
2023-03-29T12:59:08.452Z,2905.00
2023-03-29T13:03:08.561Z,2896.00
2023-03-29T13:07:08.527Z,2903.00
2023-03-29T13:11:08.573Z,2757.00
2023-03-29T13:15:08.677Z,2878.00
2023-03-29T13:19:08.758Z,2979.00
2023-03-29T13:23:08.840Z,2766.00
2023-03-29T13:27:08.897Z,2929.00
2023-03-29T13:31:09.010Z,2704.00
2023-03-29T13:35:09.052Z,2697.00
2023-03-29T13:39:09.239Z,2753.00
2023-03-29T13:43:09.419Z,2564.00
2023-03-29T13:47:09.610Z,2682.00
2023-03-29T13:51:09.556Z,2792.00
2023-03-29T13:55:09.612Z,2541.00
2023-03-29T13:59:09.626Z,2577.00
2023-03-29T14:03:09.749Z,2336.00
2023-03-29T14:07:09.643Z,2227.00
2023-03-29T14:11:09.683Z,2332.00
2023-03-29T14:15:09.700Z,2261.00
2023-03-29T14:19:09.722Z,2118.00
2023-03-29T14:23:09.795Z,2198.00
2023-03-29T14:27:09.929Z,2235.00
2023-03-29T14:31:10.050Z,2484.00
2023-03-29T14:35:10.122Z,2491.00
2023-03-29T14:39:10.257Z,2476.00
2023-03-29T14:43:10.387Z,2485.00
2023-03-29T14:47:10.496Z,2507.00
2023-03-29T14:51:10.682Z,2475.00
2023-03-29T14:55:00.864Z,500.00
2023-03-29T14:56:00.963Z,500.00
2023-03-29T14:57:00.925Z,500.00
2023-03-29T14:58:00.865Z,500.00
2023-03-29T14:59:00.809Z,500.00
2023-03-29T15:00:01.085Z,503.00
2023-03-29T15:01:00.906Z,500.00
2023-03-29T15:02:00.794Z,502.00
2023-03-29T15:03:00.999Z,517.00
2023-03-29T15:04:00.807Z,542.00
2023-03-29T15:05:00.839Z,511.00
2023-03-29T15:06:00.896Z,520.00
2023-03-29T15:07:00.781Z,504.00
2023-03-29T15:08:00.777Z,531.00
2023-03-29T15:09:06.005Z,531.00
2023-03-29T15:10:01.911Z,501.00
2023-03-29T15:11:00.748Z,521.00
2023-03-29T15:12:00.763Z,499.00
2023-03-29T15:13:00.741Z,520.00
2023-03-29T15:14:00.720Z,531.00
2023-03-29T15:15:00.727Z,512.00
2023-03-29T15:16:00.861Z,516.00
2023-03-29T15:17:00.681Z,517.00
2023-03-29T15:18:00.767Z,537.00
2023-03-29T15:19:00.713Z,552.00
2023-03-29T15:20:00.866Z,545.00
2023-03-29T15:21:00.648Z,522.00
2023-03-29T15:22:02.238Z,546.00
2023-03-29T15:23:00.687Z,560.00
2023-03-29T15:24:00.644Z,572.00
2023-03-29T15:25:00.645Z,525.00
2023-03-29T15:26:00.709Z,515.00
2023-03-29T15:27:00.611Z,542.00
2023-03-29T15:28:01.757Z,551.00
2023-03-29T15:29:00.618Z,553.00
2023-03-29T15:30:00.582Z,556.00
2023-03-29T15:31:07.780Z,558.00
2023-03-29T15:32:01.647Z,558.00
2023-03-29T15:33:00.647Z,540.00
2023-03-29T15:34:00.588Z,489.00
2023-03-29T15:35:00.622Z,492.00
2023-03-29T15:36:00.705Z,516.00
2023-03-29T15:37:00.586Z,528.00
2023-03-29T15:38:00.568Z,523.00
2023-03-29T15:39:00.511Z,539.00
2023-03-29T15:40:00.532Z,544.00
2023-03-29T15:41:00.532Z,549.00
2023-03-29T15:42:00.565Z,546.00
2023-03-29T15:43:00.509Z,554.00
2023-03-29T15:44:00.511Z,552.00
2023-03-29T15:45:00.496Z,560.00
2023-03-29T15:46:00.455Z,553.00
2023-03-29T15:47:00.559Z,561.00
2023-03-29T15:48:00.491Z,568.00
2023-03-29T15:49:00.457Z,574.00
2023-03-29T15:50:00.476Z,574.00
2023-03-29T15:51:03.752Z,575.00
2023-03-29T15:52:01.450Z,577.00
2023-03-29T15:53:14.148Z,578.00
2023-03-29T15:54:01.441Z,577.00
2023-03-29T15:55:00.414Z,580.00
2023-03-29T15:56:00.521Z,589.00
2023-03-29T15:57:00.501Z,598.00
2023-03-29T15:58:00.532Z,594.00
2023-03-29T15:59:00.382Z,609.00
2023-03-29T16:00:00.373Z,614.00
2023-03-29T16:01:00.478Z,615.00
2023-03-29T16:02:00.412Z,599.00
2023-03-29T16:03:00.376Z,615.00
2023-03-29T16:04:00.343Z,622.00
2023-03-29T16:05:01.072Z,615.00
2023-03-29T16:06:00.472Z,620.00
2023-03-29T16:07:00.317Z,618.00
2023-03-29T16:08:00.319Z,616.00
2023-03-29T16:09:00.312Z,619.00
2023-03-29T16:10:00.346Z,613.00
2023-03-29T16:11:00.350Z,625.00
2023-03-29T16:12:00.300Z,627.00
2023-03-29T16:13:00.285Z,621.00
2023-03-29T16:14:00.275Z,618.00
2023-03-29T16:15:00.254Z,622.00
2023-03-29T16:16:00.353Z,626.00
2023-03-29T16:17:00.417Z,619.00
2023-03-29T16:18:00.294Z,626.00
2023-03-29T16:19:00.240Z,628.00
2023-03-29T16:20:00.251Z,624.00
2023-03-29T16:21:00.321Z,635.00
2023-03-29T16:22:00.322Z,628.00
2023-03-29T16:23:00.301Z,634.00
2023-03-29T16:24:00.333Z,628.00
2023-03-29T16:25:00.388Z,634.00
2023-03-29T16:26:00.452Z,633.00
2023-03-29T16:27:00.398Z,635.00
2023-03-29T16:28:00.405Z,631.00
2023-03-29T16:29:00.416Z,631.00
2023-03-29T16:30:00.430Z,631.00
2023-03-29T16:31:00.436Z,629.00
2023-03-29T16:32:00.453Z,637.00
2023-03-29T16:33:00.438Z,635.00
2023-03-29T16:34:00.730Z,638.00
2023-03-29T16:35:00.452Z,634.00
2023-03-29T16:36:00.670Z,635.00
2023-03-29T16:37:00.474Z,633.00
2023-03-29T16:38:00.529Z,635.00
2023-03-29T16:39:00.559Z,635.00
2023-03-29T16:40:00.563Z,635.00
2023-03-29T16:41:00.569Z,638.00
2023-03-29T16:42:00.567Z,634.00
2023-03-29T16:43:00.550Z,638.00
2023-03-29T16:44:00.571Z,638.00
2023-03-29T16:45:00.607Z,639.00
2023-03-29T16:46:00.664Z,641.00
2023-03-29T16:47:00.807Z,636.00
2023-03-29T16:48:00.632Z,636.00
2023-03-29T16:49:00.632Z,637.00
2023-03-29T16:50:00.757Z,636.00
2023-03-29T16:51:00.697Z,636.00
2023-03-29T16:52:00.728Z,644.00
2023-03-29T16:53:00.773Z,643.00
2023-03-29T16:54:00.846Z,645.00
2023-03-29T16:55:00.885Z,645.00
2023-03-29T16:56:01.117Z,636.00
2023-03-29T16:57:00.982Z,643.00
2023-03-29T16:58:00.898Z,642.00
2023-03-29T16:59:00.919Z,645.00
2023-03-29T17:00:00.939Z,640.00
2023-03-29T17:01:01.104Z,646.00
2023-03-29T17:02:00.992Z,646.00
2023-03-29T17:03:01.039Z,647.00
2023-03-29T17:04:01.044Z,638.00
2023-03-29T17:05:01.032Z,651.00
2023-03-29T17:06:01.213Z,652.00
2023-03-29T17:07:01.066Z,646.00
2023-03-29T17:08:01.087Z,648.00
2023-03-29T17:09:01.100Z,649.00
2023-03-29T17:10:01.091Z,648.00
2023-03-29T17:11:01.219Z,646.00
2023-03-29T17:12:01.252Z,648.00
2023-03-29T17:13:01.223Z,646.00
2023-03-29T17:14:01.251Z,642.00
2023-03-29T17:15:01.290Z,651.00
2023-03-29T17:16:01.703Z,654.00
2023-03-29T17:17:01.354Z,654.00
2023-03-29T17:18:01.399Z,654.00
2023-03-29T17:19:01.438Z,653.00
2023-03-29T17:20:01.397Z,650.00
2023-03-29T17:21:01.436Z,651.00
2023-03-29T17:22:01.497Z,649.00
2023-03-29T17:23:01.478Z,656.00
2023-03-29T17:24:01.532Z,653.00
2023-03-29T17:25:01.566Z,646.00
2023-03-29T17:26:01.870Z,655.00
2023-03-29T17:27:01.610Z,649.00
2023-03-29T17:28:01.623Z,658.00
2023-03-29T17:29:01.620Z,651.00
2023-03-29T17:30:01.678Z,650.00
2023-03-29T17:31:01.749Z,656.00
2023-03-29T17:32:01.729Z,652.00
2023-03-29T17:33:01.799Z,656.00
2023-03-29T17:34:01.759Z,654.00
2023-03-29T17:35:01.800Z,659.00
2023-03-29T17:36:02.175Z,660.00
2023-03-29T17:37:01.831Z,661.00
2023-03-29T17:38:16.589Z,665.00
2023-03-29T17:39:02.822Z,668.00
2023-03-29T17:40:01.847Z,676.00
2023-03-29T17:41:01.841Z,677.00
2023-03-29T17:42:01.858Z,678.00
2023-03-29T17:43:01.841Z,683.00
2023-03-29T17:44:01.802Z,681.00
2023-03-29T17:45:01.843Z,672.00
2023-03-29T17:46:02.073Z,669.00
2023-03-29T17:47:01.929Z,666.00
2023-03-29T17:48:03.462Z,665.00
2023-03-29T17:49:01.773Z,665.00
2023-03-29T17:50:01.814Z,666.00
2023-03-29T17:51:01.770Z,666.00
2023-03-29T17:52:01.771Z,662.00
2023-03-29T17:53:01.765Z,661.00
2023-03-29T17:54:01.775Z,684.00
2023-03-29T17:55:01.760Z,747.00
2023-03-29T17:56:02.050Z,784.00
2023-03-29T17:57:01.755Z,769.00
2023-03-29T17:58:01.738Z,751.00
2023-03-29T17:59:01.716Z,732.00
2023-03-29T18:00:01.712Z,762.00
2023-03-29T18:01:01.717Z,770.00
2023-03-29T18:02:01.750Z,759.00
2023-03-29T18:03:01.739Z,743.00
2023-03-29T18:04:01.699Z,725.00
2023-03-29T18:05:01.674Z,711.00
2023-03-29T18:06:02.069Z,714.00
2023-03-29T18:07:01.689Z,714.00
2023-03-29T18:08:01.663Z,718.00
2023-03-29T18:09:01.654Z,714.00
2023-03-29T18:10:01.639Z,707.00
2023-03-29T18:11:01.651Z,695.00
2023-03-29T18:12:01.625Z,696.00
2023-03-29T18:13:01.659Z,698.00
2023-03-29T18:14:01.663Z,685.00
2023-03-29T18:15:01.571Z,667.00
2023-03-29T18:16:01.898Z,668.00
2023-03-29T18:17:01.638Z,672.00
2023-03-29T18:18:01.611Z,670.00
2023-03-29T18:19:01.569Z,679.00
2023-03-29T18:20:01.544Z,678.00
2023-03-29T18:21:01.574Z,672.00
2023-03-29T18:22:01.523Z,674.00
2023-03-29T18:23:01.534Z,664.00
2023-03-29T18:24:01.512Z,665.00
2023-03-29T18:25:01.494Z,662.00
2023-03-29T18:26:01.761Z,665.00
2023-03-29T18:27:01.521Z,661.00
2023-03-29T18:28:01.494Z,661.00
2023-03-29T18:29:01.456Z,661.00
2023-03-29T18:30:01.486Z,661.00
2023-03-29T18:31:01.480Z,659.00
2023-03-29T18:32:01.467Z,659.00
2023-03-29T18:33:01.625Z,660.00
2023-03-29T18:34:01.566Z,660.00
2023-03-29T18:35:01.581Z,662.00
2023-03-29T18:36:01.708Z,658.00
2023-03-29T18:37:01.626Z,652.00
2023-03-29T18:38:01.682Z,657.00
2023-03-29T18:39:01.696Z,656.00
2023-03-29T18:40:01.752Z,658.00
2023-03-29T18:41:01.803Z,650.00
2023-03-29T18:42:01.819Z,655.00
2023-03-29T18:43:01.871Z,658.00
2023-03-29T18:44:01.925Z,656.00
2023-03-29T18:45:01.934Z,659.00
2023-03-29T18:46:02.265Z,660.00
2023-03-29T18:47:02.008Z,654.00
2023-03-29T18:48:02.129Z,650.00
2023-03-29T18:49:02.109Z,657.00
2023-03-29T18:50:02.161Z,657.00
2023-03-29T18:51:04.417Z,660.00
2023-03-29T18:52:02.203Z,664.00
2023-03-29T18:53:02.252Z,665.00
2023-03-29T18:54:02.195Z,658.00
2023-03-29T18:55:02.212Z,656.00
2023-03-29T18:56:02.339Z,663.00
2023-03-29T18:57:02.251Z,676.00
2023-03-29T18:58:02.183Z,672.00
2023-03-29T18:59:02.185Z,676.00
2023-03-29T19:00:02.166Z,675.00
2023-03-29T19:01:02.208Z,672.00
2023-03-29T19:02:02.146Z,669.00
2023-03-29T19:03:02.245Z,677.00
2023-03-29T19:04:02.141Z,674.00
2023-03-29T19:05:02.093Z,675.00
2023-03-29T19:06:02.304Z,678.00
2023-03-29T19:07:02.139Z,671.00
2023-03-29T19:08:02.122Z,664.00
2023-03-29T19:09:02.188Z,677.00
2023-03-29T19:10:02.113Z,668.00
2023-03-29T19:11:02.117Z,673.00
2023-03-29T19:12:02.035Z,672.00
2023-03-29T19:13:02.041Z,665.00
2023-03-29T19:14:02.062Z,670.00
2023-03-29T19:15:02.039Z,664.00
2023-03-29T19:16:02.337Z,665.00
2023-03-29T19:17:02.047Z,666.00
2023-03-29T19:18:02.042Z,670.00
2023-03-29T19:19:02.030Z,672.00
2023-03-29T19:20:02.029Z,666.00
2023-03-29T19:21:02.015Z,662.00
2023-03-29T19:22:02.021Z,661.00
2023-03-29T19:23:02.003Z,662.00
2023-03-29T19:24:01.992Z,663.00
2023-03-29T19:25:02.005Z,662.00
2023-03-29T19:26:02.093Z,663.00
2023-03-29T19:27:01.973Z,660.00
2023-03-29T19:28:01.962Z,656.00
2023-03-29T19:29:01.923Z,655.00
2023-03-29T19:30:01.990Z,655.00
2023-03-29T19:31:02.029Z,654.00
2023-03-29T19:32:01.941Z,656.00
2023-03-29T19:33:02.016Z,655.00
2023-03-29T19:34:02.048Z,653.00
2023-03-29T19:35:02.114Z,654.00
2023-03-29T19:36:02.448Z,658.00
2023-03-29T19:37:02.196Z,652.00
2023-03-29T19:38:02.240Z,651.00
2023-03-29T19:39:02.299Z,647.00
2023-03-29T19:40:02.317Z,650.00
2023-03-29T19:41:02.368Z,660.00
2023-03-29T19:42:02.399Z,651.00
2023-03-29T19:43:02.417Z,655.00
2023-03-29T19:44:02.514Z,654.00
2023-03-29T19:45:02.542Z,650.00
2023-03-29T19:46:02.755Z,647.00
2023-03-29T19:47:02.696Z,651.00
2023-03-29T19:48:03.656Z,652.00
2023-03-29T19:49:04.441Z,651.00
2023-03-29T19:50:02.727Z,656.00
2023-03-29T19:51:02.705Z,654.00
2023-03-29T19:52:02.699Z,649.00
2023-03-29T19:53:02.690Z,647.00
2023-03-29T19:54:02.735Z,648.00
2023-03-29T19:55:02.656Z,647.00
2023-03-29T19:56:02.861Z,652.00
2023-03-29T19:57:02.754Z,648.00
2023-03-29T19:58:02.676Z,652.00
2023-03-29T19:59:02.631Z,654.00
2023-03-29T20:00:02.621Z,646.00
2023-03-29T20:01:03.031Z,647.00
2023-03-29T20:02:02.658Z,643.00
2023-03-29T20:03:02.696Z,649.00
2023-03-29T20:04:02.651Z,644.00
2023-03-29T20:05:02.600Z,645.00
2023-03-29T20:06:02.656Z,642.00
2023-03-29T20:07:02.690Z,641.00
2023-03-29T20:08:02.651Z,648.00
2023-03-29T20:09:02.557Z,645.00
2023-03-29T20:10:02.567Z,642.00
2023-03-29T20:11:02.811Z,645.00
2023-03-29T20:12:02.579Z,647.00
2023-03-29T20:13:02.573Z,641.00
2023-03-29T20:14:02.514Z,640.00
2023-03-29T20:15:02.540Z,641.00
2023-03-29T20:16:02.574Z,637.00
2023-03-29T20:17:02.508Z,641.00
2023-03-29T20:18:02.546Z,634.00
2023-03-29T20:19:02.500Z,639.00
2023-03-29T20:20:02.525Z,636.00
2023-03-29T20:21:02.757Z,642.00
2023-03-29T20:22:02.516Z,640.00
2023-03-29T20:23:05.013Z,639.00
2023-03-29T20:24:02.461Z,645.00
2023-03-29T20:25:02.479Z,639.00
2023-03-29T20:26:02.429Z,646.00
2023-03-29T20:27:02.437Z,641.00
2023-03-29T20:28:02.404Z,635.00
2023-03-29T20:29:02.469Z,643.00
2023-03-29T20:30:02.418Z,640.00
2023-03-29T20:31:02.653Z,639.00
2023-03-29T20:32:02.443Z,637.00
2023-03-29T20:33:02.465Z,638.00
2023-03-29T20:34:02.408Z,641.00
2023-03-29T20:35:02.374Z,638.00
2023-03-29T20:36:02.512Z,634.00
2023-03-29T20:37:02.425Z,638.00
2023-03-29T20:38:02.372Z,635.00
2023-03-29T20:39:02.362Z,637.00
2023-03-29T20:40:02.346Z,636.00
2023-03-29T20:41:02.558Z,633.00
2023-03-29T20:42:02.339Z,636.00
2023-03-29T20:43:02.328Z,637.00
2023-03-29T20:44:02.357Z,636.00
2023-03-29T20:45:02.322Z,639.00
2023-03-29T20:46:02.350Z,638.00
2023-03-29T20:47:02.361Z,634.00
2023-03-29T20:48:02.391Z,634.00
2023-03-29T20:49:02.291Z,631.00
2023-03-29T20:50:02.251Z,634.00
2023-03-29T20:51:02.559Z,635.00
2023-03-29T20:52:02.276Z,635.00
2023-03-29T20:53:02.296Z,628.00
2023-03-29T20:54:02.441Z,631.00
2023-03-29T20:55:02.262Z,630.00
2023-03-29T20:56:02.224Z,629.00
2023-03-29T20:57:02.270Z,631.00
2023-03-29T20:58:02.261Z,635.00
2023-03-29T20:59:02.203Z,637.00
2023-03-29T21:00:02.240Z,630.00
2023-03-29T21:01:02.751Z,637.00
2023-03-29T21:02:02.308Z,631.00
2023-03-29T21:03:02.306Z,635.00
2023-03-29T21:04:02.262Z,633.00
2023-03-29T21:05:02.308Z,629.00
2023-03-29T21:06:02.380Z,630.00
2023-03-29T21:07:03.478Z,634.00
2023-03-29T21:08:02.464Z,632.00
2023-03-29T21:09:02.485Z,631.00
2023-03-29T21:10:02.541Z,632.00
2023-03-29T21:11:02.738Z,630.00
2023-03-29T21:12:02.673Z,631.00
2023-03-29T21:13:02.976Z,632.00
2023-03-29T21:14:02.727Z,631.00
2023-03-29T21:15:02.814Z,630.00
2023-03-29T21:16:02.907Z,635.00
2023-03-29T21:17:02.898Z,631.00
2023-03-29T21:18:02.979Z,631.00
2023-03-29T21:19:03.001Z,634.00
2023-03-29T21:20:03.048Z,629.00
2023-03-29T21:21:03.203Z,631.00
2023-03-29T21:22:03.154Z,627.00
2023-03-29T21:23:03.204Z,629.00
2023-03-29T21:24:03.215Z,629.00
2023-03-29T21:25:03.257Z,629.00
2023-03-29T21:26:03.283Z,629.00
2023-03-29T21:27:03.385Z,628.00
2023-03-29T21:28:03.411Z,628.00
2023-03-29T21:29:03.453Z,628.00
2023-03-29T21:30:03.490Z,627.00
2023-03-29T21:31:03.684Z,630.00
2023-03-29T21:32:03.581Z,635.00
2023-03-29T21:33:03.648Z,627.00
2023-03-29T21:34:03.678Z,631.00
2023-03-29T21:35:03.720Z,632.00
2023-03-29T21:36:03.836Z,628.00
2023-03-29T21:37:03.798Z,626.00
2023-03-29T21:38:03.866Z,631.00
2023-03-29T21:39:03.893Z,621.00
2023-03-29T21:40:03.954Z,632.00
2023-03-29T21:41:04.218Z,626.00
2023-03-29T21:42:04.039Z,631.00
2023-03-29T21:43:04.107Z,627.00
2023-03-29T21:44:04.157Z,626.00
2023-03-29T21:45:04.201Z,630.00
2023-03-29T21:46:04.243Z,626.00
2023-03-29T21:47:04.336Z,624.00
2023-03-29T21:48:04.394Z,629.00
2023-03-29T21:49:04.403Z,624.00
2023-03-29T21:50:04.500Z,631.00
2023-03-29T21:51:04.744Z,628.00
2023-03-29T21:52:04.512Z,628.00
2023-03-29T21:53:04.579Z,633.00
2023-03-29T21:54:04.642Z,626.00
2023-03-29T21:55:04.704Z,625.00
2023-03-29T21:56:04.749Z,629.00
2023-03-29T21:57:04.907Z,625.00
2023-03-29T21:58:04.830Z,625.00
2023-03-29T21:59:04.915Z,630.00
2023-03-29T22:00:04.979Z,629.00
2023-03-29T22:01:05.249Z,631.00
2023-03-29T22:02:05.191Z,634.00
2023-03-29T22:03:05.135Z,626.00
2023-03-29T22:04:05.220Z,632.00
2023-03-29T22:05:05.237Z,629.00
2023-03-29T22:06:05.352Z,631.00
2023-03-29T22:07:05.421Z,628.00
2023-03-29T22:08:05.415Z,626.00
2023-03-29T22:09:05.472Z,628.00
2023-03-29T22:10:05.517Z,630.00
2023-03-29T22:11:07.484Z,633.00
2023-03-29T22:12:05.620Z,630.00
2023-03-29T22:13:05.651Z,631.00
2023-03-29T22:14:05.696Z,631.00
2023-03-29T22:15:05.772Z,624.00
2023-03-29T22:16:05.899Z,629.00
2023-03-29T22:17:05.908Z,624.00
2023-03-29T22:18:05.952Z,627.00
2023-03-29T22:19:05.957Z,630.00
2023-03-29T22:20:06.006Z,623.00
2023-03-29T22:21:06.107Z,625.00
2023-03-29T22:22:06.129Z,625.00
2023-03-29T22:23:06.143Z,625.00
2023-03-29T22:24:06.234Z,627.00
2023-03-29T22:25:06.278Z,631.00
2023-03-29T22:26:06.358Z,627.00
2023-03-29T22:27:06.362Z,632.00
2023-03-29T22:28:06.407Z,631.00
2023-03-29T22:29:06.439Z,625.00
2023-03-29T22:30:06.535Z,627.00
2023-03-29T22:31:06.531Z,629.00
2023-03-29T22:32:06.615Z,626.00
2023-03-29T22:33:06.679Z,627.00
2023-03-29T22:34:06.758Z,623.00
2023-03-29T22:35:06.760Z,623.00
2023-03-29T22:36:06.782Z,621.00
2023-03-29T22:37:06.803Z,627.00
2023-03-29T22:38:06.882Z,626.00
2023-03-29T22:39:06.949Z,627.00
2023-03-29T22:40:07.000Z,625.00
2023-03-29T22:41:07.011Z,622.00
2023-03-29T22:42:07.202Z,624.00
2023-03-29T22:43:07.122Z,629.00
2023-03-29T22:44:07.189Z,627.00
2023-03-29T22:45:07.217Z,623.00
2023-03-29T22:46:07.277Z,630.00
2023-03-29T22:47:07.310Z,627.00
2023-03-29T22:48:07.415Z,624.00
2023-03-29T22:49:07.401Z,625.00
2023-03-29T22:50:07.490Z,630.00
2023-03-29T22:51:07.497Z,625.00
2023-03-29T22:52:07.521Z,628.00
2023-03-29T22:53:07.597Z,627.00
2023-03-29T22:54:07.602Z,626.00
2023-03-29T22:55:07.669Z,625.00
2023-03-29T22:56:07.721Z,622.00
2023-03-29T22:57:07.805Z,624.00
2023-03-29T22:58:07.802Z,626.00
2023-03-29T22:59:07.850Z,627.00
2023-03-29T23:00:07.920Z,629.00
2023-03-29T23:01:08.231Z,627.00
2023-03-29T23:02:08.025Z,625.00
2023-03-29T23:03:08.106Z,621.00
2023-03-29T23:04:08.121Z,623.00
2023-03-29T23:05:08.139Z,625.00
2023-03-29T23:06:08.178Z,624.00
2023-03-29T23:07:08.253Z,619.00
2023-03-29T23:08:08.303Z,617.00
2023-03-29T23:09:08.334Z,625.00
2023-03-29T23:10:08.393Z,623.00
2023-03-29T23:11:08.457Z,624.00
2023-03-29T23:12:08.499Z,619.00
2023-03-29T23:13:08.597Z,622.00
2023-03-29T23:14:08.619Z,622.00
2023-03-29T23:15:08.615Z,623.00
2023-03-29T23:16:08.778Z,622.00
2023-03-29T23:17:08.738Z,621.00
2023-03-29T23:18:08.812Z,621.00
2023-03-29T23:19:08.814Z,623.00
2023-03-29T23:20:08.909Z,621.00
2023-03-29T23:21:09.006Z,622.00
2023-03-29T23:22:08.976Z,623.00
2023-03-29T23:23:08.995Z,618.00
2023-03-29T23:24:09.019Z,621.00
2023-03-29T23:25:09.107Z,622.00
2023-03-29T23:26:09.102Z,625.00
2023-03-29T23:27:09.114Z,623.00
2023-03-29T23:28:09.216Z,618.00
2023-03-29T23:29:09.221Z,620.00
2023-03-29T23:30:09.281Z,627.00
2023-03-29T23:31:09.896Z,622.00
2023-03-29T23:32:09.398Z,628.00
2023-03-29T23:33:09.483Z,623.00
2023-03-29T23:34:09.466Z,623.00
2023-03-29T23:35:09.516Z,621.00
2023-03-29T23:36:09.600Z,627.00
2023-03-29T23:37:09.646Z,624.00